Time;durP1;ratioP1;P1;durP2;ratioP2;P2;SDS_P1;SDS_P2;PMS_P1;PMS_P2;Temp;Humidity;BMP_temperature;BMP_pressure;BME280_temperature;BME280_humidity;BME280_pressure;Samples;Min_cycle;Max_cycle;Signal;HPM_P1;HPM_P2
2022/11/18 00:00:24;;;;;;;;;2.25;0.00;;;;;;;;5084509;28;61859;-83
2022/11/18 00:02:49;;;;;;;;;2.00;0.50;;;;;;;;5083808;27;61855;-83
2022/11/18 00:05:14;;;;;;;;;2.00;0.00;;;;;;;;5083914;28;62109;-83
2022/11/18 00:07:40;;;;;;;;;1.25;0.00;;;;;;;;5083390;28;62116;-83
2022/11/18 00:10:05;;;;;;;;;0.25;0.25;;;;;;;;5081905;27;62288;-84
2022/11/18 00:15:14;;;;;;;;;0.00;0.00;;;;;;;;5084031;27;62148;-82
2022/11/18 00:17:40;;;;;;;;;0.00;0.00;;;;;;;;5084745;27;61751;-83
2022/11/18 00:20:05;;;;;;;;;0.00;0.00;;;;;;;;5082799;28;62169;-84
2022/11/18 00:22:30;;;;;;;;;1.00;0.00;;;;;;;;5082460;28;65038;-84
2022/11/18 00:24:56;;;;;;;;;0.00;0.00;;;;;;;;5082764;27;61765;-83
2022/11/18 00:27:21;;;;;;;;;0.00;0.00;;;;;;;;5084162;27;61655;-83
2022/11/18 00:29:46;;;;;;;;;0.00;0.00;;;;;;;;5084531;28;61717;-83
2022/11/18 00:32:11;;;;;;;;;0.25;0.25;;;;;;;;5082241;27;61988;-83
2022/11/18 00:34:37;;;;;;;;;0.00;0.00;;;;;;;;5083018;27;62104;-83
2022/11/18 00:37:02;;;;;;;;;0.00;0.00;;;;;;;;5083770;27;61732;-83
2022/11/18 00:39:27;;;;;;;;;0.00;0.00;;;;;;;;5092477;27;62013;-84
2022/11/18 00:44:37;;;;;;;;;0.00;0.00;;;;;;;;5104927;27;61738;-83
2022/11/18 00:47:02;;;;;;;;;0.75;0.00;;;;;;;;5104531;27;61916;-83
2022/11/18 00:49:28;;;;;;;;;0.00;0.00;;;;;;;;5083499;27;61683;-85
2022/11/18 00:51:53;;;;;;;;;0.00;0.00;;;;;;;;5081548;28;63432;-83
2022/11/18 00:54:18;;;;;;;;;2.00;1.00;;;;;;;;5083152;28;61921;-83
2022/11/18 00:56:43;;;;;;;;;0.00;0.00;;;;;;;;5084248;28;62350;-84
2022/11/18 00:59:09;;;;;;;;;0.00;0.00;;;;;;;;5083914;28;61825;-83
2022/11/18 01:01:34;;;;;;;;;1.25;1.00;;;;;;;;5083232;28;62002;-83
2022/11/18 01:03:59;;;;;;;;;1.00;1.00;;;;;;;;5083757;28;62001;-83
2022/11/18 01:06:25;;;;;;;;;0.00;0.00;;;;;;;;5081966;27;61840;-83
2022/11/18 01:08:50;;;;;;;;;0.00;0.00;;;;;;;;5083700;28;61833;-82
2022/11/18 01:14:00;;;;;;;;;0.75;0.00;;;;;;;;5083793;27;61898;-84
2022/11/18 01:16:26;;;;;;;;;0.50;0.50;;;;;;;;5081874;28;61801;-84
2022/11/18 01:18:51;;;;;;;;;1.00;1.00;;;;;;;;5083632;28;61759;-83
2022/11/18 01:21:17;;;;;;;;;1.00;1.00;;;;;;;;5082341;28;62123;-83
2022/11/18 01:23:42;;;;;;;;;0.00;0.00;;;;;;;;5083442;27;61962;-82
2022/11/18 01:26:09;;;;;;;;;0.75;0.00;;;;;;;;5082055;27;61936;-83
2022/11/18 01:28:34;;;;;;;;;4.00;0.00;;;;;;;;5082187;27;62086;-83
2022/11/18 01:31:17;;;;;;;;;1.00;0.00;;;;;;;;5082936;28;62956;-84
2022/11/18 01:33:43;;;;;;;;;0.25;0.00;;;;;;;;5083457;28;61813;-83
2022/11/18 01:36:15;;;;;;;;;0.00;0.00;;;;;;;;5082565;28;61927;-83
2022/11/18 01:38:41;;;;;;;;;0.00;0.00;;;;;;;;5084439;27;62315;-82
2022/11/18 01:41:06;;;;;;;;;0.00;0.00;;;;;;;;5102954;27;62017;-83
2022/11/18 01:43:47;;;;;;;;;1.00;1.00;;;;;;;;5102003;27;61821;-84
2022/11/18 01:46:12;;;;;;;;;0.75;0.75;;;;;;;;5102459;27;61901;-83
2022/11/18 01:48:38;;;;;;;;;3.00;0.00;;;;;;;;5103197;27;62188;-84
2022/11/18 01:51:15;;;;;;;;;0.00;0.00;;;;;;;;5102644;27;62588;-84
2022/11/18 01:53:45;;;;;;;;;0.50;0.50;;;;;;;;5093370;27;61739;-82
2022/11/18 01:56:13;;;;;;;;;0.00;0.00;;;;;;;;5083135;28;61835;-83
2022/11/18 01:58:42;;;;;;;;;0.00;0.00;;;;;;;;5083028;28;61809;-84
2022/11/18 02:01:07;;;;;;;;;2.00;0.00;;;;;;;;5082516;27;61894;-83
2022/11/18 02:03:33;;;;;;;;;0.75;0.00;;;;;;;;5082374;28;61812;-83
2022/11/18 02:06:00;;;;;;;;;0.75;0.00;;;;;;;;5082853;28;61823;-83
2022/11/18 02:08:27;;;;;;;;;1.00;1.00;;;;;;;;5082614;28;62101;-83
2022/11/18 02:10:52;;;;;;;;;1.00;0.00;;;;;;;;5080997;27;62064;-83
2022/11/18 02:13:18;;;;;;;;;0.00;0.00;;;;;;;;5082779;27;62001;-83
2022/11/18 02:15:50;;;;;;;;;0.00;0.00;;;;;;;;5081277;28;62166;-84
2022/11/18 02:18:22;;;;;;;;;0.00;0.00;;;;;;;;5081314;28;61737;-84
2022/11/18 02:20:50;;;;;;;;;0.00;0.00;;;;;;;;5081417;28;63240;-84
2022/11/18 02:23:28;;;;;;;;;1.75;0.00;;;;;;;;5082650;28;61751;-83
2022/11/18 02:26:12;;;;;;;;;0.00;0.00;;;;;;;;5082324;28;62090;-85
2022/11/18 02:28:48;;;;;;;;;0.50;0.00;;;;;;;;5082697;28;61768;-83
2022/11/18 02:31:16;;;;;;;;;0.00;0.00;;;;;;;;5081958;27;63143;-83
2022/11/18 02:33:57;;;;;;;;;0.00;0.00;;;;;;;;5080006;28;61926;-84
2022/11/18 02:36:52;;;;;;;;;0.00;0.00;;;;;;;;5082417;28;61910;-83
2022/11/18 02:39:23;;;;;;;;;0.00;0.00;;;;;;;;5075403;27;61860;-83
2022/11/18 02:41:50;;;;;;;;;0.00;0.00;;;;;;;;5066932;27;61797;-83
2022/11/18 02:44:17;;;;;;;;;0.00;0.00;;;;;;;;5062234;28;61838;-83
2022/11/18 02:46:46;;;;;;;;;1.00;0.00;;;;;;;;5061949;28;61716;-85
2022/11/18 02:49:23;;;;;;;;;0.00;0.00;;;;;;;;5061669;28;61935;-83
2022/11/18 02:51:49;;;;;;;;;0.00;0.00;;;;;;;;5061217;28;62089;-84
2022/11/18 02:54:15;;;;;;;;;0.00;0.00;;;;;;;;5076055;28;62197;-83
2022/11/18 02:56:41;;;;;;;;;0.00;0.00;;;;;;;;5081909;27;61787;-82
2022/11/18 02:59:06;;;;;;;;;0.00;0.00;;;;;;;;5081095;28;62011;-84
2022/11/18 03:01:33;;;;;;;;;0.00;0.00;;;;;;;;5081245;28;63087;-83
2022/11/18 03:03:58;;;;;;;;;0.00;0.00;;;;;;;;5080575;28;61821;-83
2022/11/18 03:06:30;;;;;;;;;0.00;0.00;;;;;;;;5080825;27;61685;-83
2022/11/18 03:09:04;;;;;;;;;0.00;0.00;;;;;;;;5081796;27;61638;-83
2022/11/18 03:11:32;;;;;;;;;0.00;0.00;;;;;;;;5081350;28;61835;-83
2022/11/18 03:14:13;;;;;;;;;0.75;0.00;;;;;;;;5081864;28;61713;-85
2022/11/18 03:16:41;;;;;;;;;0.00;0.00;;;;;;;;5081657;28;61999;-83
2022/11/18 03:19:07;;;;;;;;;0.00;0.00;;;;;;;;5081925;28;61682;-83
2022/11/18 03:21:38;;;;;;;;;0.00;0.00;;;;;;;;5081254;28;62853;-84
2022/11/18 03:24:10;;;;;;;;;0.00;0.00;;;;;;;;5080030;28;62171;-83
2022/11/18 03:26:37;;;;;;;;;0.00;0.00;;;;;;;;5080139;28;62043;-83
2022/11/18 03:29:10;;;;;;;;;0.00;0.00;;;;;;;;5080513;28;62163;-83
2022/11/18 03:31:36;;;;;;;;;1.00;0.00;;;;;;;;5080810;28;61883;-83
2022/11/18 03:34:07;;;;;;;;;0.00;0.00;;;;;;;;5080063;28;61835;-83
2022/11/18 03:36:36;;;;;;;;;0.00;0.00;;;;;;;;5080521;28;61867;-83
2022/11/18 03:39:02;;;;;;;;;0.00;0.00;;;;;;;;5081429;27;61753;-83
2022/11/18 03:41:30;;;;;;;;;0.00;0.00;;;;;;;;5079689;27;61830;-84
2022/11/18 03:44:08;;;;;;;;;0.00;0.00;;;;;;;;5081322;28;61807;-83
2022/11/18 03:46:37;;;;;;;;;0.00;0.00;;;;;;;;5083871;27;62042;-83
2022/11/18 03:49:04;;;;;;;;;0.00;0.00;;;;;;;;5084752;27;61870;-83
2022/11/18 03:51:35;;;;;;;;;0.00;0.00;;;;;;;;5084390;27;62801;-83
2022/11/18 03:54:07;;;;;;;;;0.00;0.00;;;;;;;;5082978;27;61894;-82
2022/11/18 03:56:35;;;;;;;;;0.00;0.00;;;;;;;;5083749;28;61784;-83
2022/11/18 03:59:01;;;;;;;;;0.00;0.00;;;;;;;;5085165;28;62021;-83
2022/11/18 04:01:46;;;;;;;;;0.00;0.00;;;;;;;;5084114;28;62534;-83
2022/11/18 04:04:12;;;;;;;;;0.00;0.00;;;;;;;;5021438;28;61892;-83
2022/11/18 04:06:53;;;;;;;;;0.00;0.00;;;;;;;;5005331;28;62132;-83
2022/11/18 04:09:21;;;;;;;;;0.00;0.00;;;;;;;;5021263;28;61869;-83
2022/11/18 04:12:04;;;;;;;;;0.00;0.00;;;;;;;;5021172;28;62870;-83
2022/11/18 04:14:48;;;;;;;;;0.00;0.00;;;;;;;;5021388;28;62053;-83
2022/11/18 04:17:15;;;;;;;;;0.00;0.00;;;;;;;;5021716;28;61966;-83
2022/11/18 04:19:41;;;;;;;;;0.25;0.00;;;;;;;;5021651;28;61882;-83
2022/11/18 04:22:07;;;;;;;;;0.00;0.00;;;;;;;;5020962;28;61962;-83
2022/11/18 04:24:32;;;;;;;;;2.00;0.50;;;;;;;;5004182;28;61946;-82
2022/11/18 04:26:57;;;;;;;;;0.00;0.00;;;;;;;;5004827;28;61889;-83
2022/11/18 04:29:23;;;;;;;;;0.00;0.00;;;;;;;;5021539;28;62133;-83
2022/11/18 04:31:48;;;;;;;;;0.00;0.00;;;;;;;;5020891;28;62816;-83
2022/11/18 04:34:13;;;;;;;;;0.00;0.00;;;;;;;;5004828;28;62333;-83
2022/11/18 04:36:39;;;;;;;;;0.00;0.00;;;;;;;;5004703;28;62021;-83
2022/11/18 04:39:04;;;;;;;;;0.00;0.00;;;;;;;;5020976;28;62052;-84
2022/11/18 04:44:13;;;;;;;;;0.00;0.00;;;;;;;;5063463;28;61927;-83
2022/11/18 04:46:40;;;;;;;;;1.25;0.00;;;;;;;;5062563;28;62205;-84
2022/11/18 04:49:05;;;;;;;;;3.00;0.00;;;;;;;;5062681;28;61773;-83
2022/11/18 04:51:31;;;;;;;;;0.00;0.00;;;;;;;;5062996;28;61867;-83
2022/11/18 04:53:56;;;;;;;;;1.00;1.00;;;;;;;;5075375;28;61852;-82
2022/11/18 04:56:21;;;;;;;;;0.00;0.00;;;;;;;;5083041;28;62260;-83
2022/11/18 04:58:46;;;;;;;;;1.00;0.00;;;;;;;;5082589;27;61751;-83
2022/11/18 05:01:11;;;;;;;;;2.00;0.00;;;;;;;;5082922;28;61949;-83
2022/11/18 05:03:37;;;;;;;;;0.00;0.00;;;;;;;;5082367;28;62082;-84
2022/11/18 05:06:02;;;;;;;;;1.00;0.00;;;;;;;;5083892;28;62153;-82
2022/11/18 05:08:27;;;;;;;;;0.25;0.00;;;;;;;;5082308;27;61737;-83
2022/11/18 05:12:47;;;;;;;;;2.00;0.00;;;;;;;;5082800;27;61913;-83
2022/11/18 05:13:39;;;;;;;;;0.00;0.00;;;;;;;;5083111;27;61817;-83
2022/11/18 05:16:05;;;;;;;;;3.25;1.00;;;;;;;;5083888;28;62051;-83
2022/11/18 05:18:31;;;;;;;;;0.00;0.00;;;;;;;;5083267;28;61933;-82
2022/11/18 05:20:56;;;;;;;;;0.25;0.00;;;;;;;;5083170;28;62762;-83
2022/11/18 05:23:21;;;;;;;;;0.75;0.00;;;;;;;;5083597;28;61865;-83
2022/11/18 05:25:48;;;;;;;;;2.50;0.00;;;;;;;;5082860;27;61826;-83
2022/11/18 05:28:13;;;;;;;;;1.00;0.00;;;;;;;;5082995;28;62216;-83
2022/11/18 05:30:38;;;;;;;;;0.00;0.00;;;;;;;;5082913;28;61752;-83
2022/11/18 05:33:04;;;;;;;;;0.50;0.00;;;;;;;;5081818;28;62001;-84
2022/11/18 05:35:29;;;;;;;;;0.00;0.00;;;;;;;;5083344;28;62178;-83
2022/11/18 05:37:54;;;;;;;;;2.50;0.00;;;;;;;;5081999;28;61729;-83
2022/11/18 05:40:19;;;;;;;;;3.00;0.00;;;;;;;;5082083;27;61952;-83
2022/11/18 05:45:28;;;;;;;;;0.00;0.00;;;;;;;;5083217;28;61883;-83
2022/11/18 05:48:00;;;;;;;;;0.00;0.00;;;;;;;;5081699;27;62157;-83
2022/11/18 05:50:25;;;;;;;;;0.00;0.00;;;;;;;;5082015;27;61779;-83
2022/11/18 05:52:50;;;;;;;;;8.75;1.00;;;;;;;;5081388;27;61989;-84
2022/11/18 05:55:18;;;;;;;;;0.75;0.75;;;;;;;;5081514;27;62186;-83
2022/11/18 05:57:43;;;;;;;;;1.25;0.00;;;;;;;;5081364;27;61840;-83
2022/11/18 06:00:09;;;;;;;;;1.50;0.00;;;;;;;;5081169;27;64075;-83
2022/11/18 06:02:35;;;;;;;;;0.00;0.00;;;;;;;;5082896;28;62104;-83
2022/11/18 06:05:02;;;;;;;;;0.00;0.00;;;;;;;;5083102;28;61860;-82
2022/11/18 06:07:36;;;;;;;;;0.00;0.00;;;;;;;;5079797;27;62062;-83
2022/11/18 06:10:02;;;;;;;;;1.75;0.25;;;;;;;;5081152;27;61897;-84
2022/11/18 06:12:29;;;;;;;;;0.75;0.50;;;;;;;;5082554;27;61701;-80
2022/11/18 06:14:57;;;;;;;;;1.25;1.25;;;;;;;;5081590;28;61793;-81
2022/11/18 06:17:29;;;;;;;;;3.25;0.75;;;;;;;;5082904;27;62121;-82
2022/11/18 06:19:55;;;;;;;;;1.00;1.00;;;;;;;;5082886;27;63251;-80
2022/11/18 06:22:20;;;;;;;;;0.00;0.00;;;;;;;;5081929;28;61834;-82
2022/11/18 06:24:46;;;;;;;;;1.00;1.00;;;;;;;;5081442;27;62083;-82
2022/11/18 06:27:13;;;;;;;;;2.00;1.00;;;;;;;;5082314;28;61915;-81
2022/11/18 06:29:38;;;;;;;;;0.00;0.00;;;;;;;;5081210;28;63182;-83
2022/11/18 06:32:03;;;;;;;;;2.00;0.00;;;;;;;;5082022;27;61878;-83
2022/11/18 06:34:29;;;;;;;;;2.00;2.00;;;;;;;;5082424;28;62196;-83
2022/11/18 06:36:54;;;;;;;;;1.50;1.00;;;;;;;;5082782;28;61753;-84
2022/11/18 06:39:19;;;;;;;;;0.25;0.25;;;;;;;;5087555;27;61651;-84
2022/11/18 06:41:45;;;;;;;;;2.75;1.50;;;;;;;;5080614;28;62022;-83
2022/11/18 06:44:11;;;;;;;;;2.00;0.75;;;;;;;;5081319;28;61916;-83
2022/11/18 06:46:54;;;;;;;;;0.50;0.50;;;;;;;;5081896;28;61948;-83
2022/11/18 06:49:20;;;;;;;;;3.00;1.50;;;;;;;;5079904;27;62956;-84
2022/11/18 06:51:45;;;;;;;;;1.50;0.50;;;;;;;;5081286;28;61866;-84
2022/11/18 06:54:10;;;;;;;;;0.50;0.00;;;;;;;;5079213;27;62045;-82
2022/11/18 06:56:36;;;;;;;;;2.50;1.00;;;;;;;;5079436;28;62304;-82
2022/11/18 06:59:01;;;;;;;;;0.00;0.00;;;;;;;;5078812;28;63305;-84
2022/11/18 07:01:28;;;;;;;;;0.75;0.75;;;;;;;;5081596;27;61916;-85
2022/11/18 07:03:54;;;;;;;;;0.75;0.75;;;;;;;;5080422;28;62635;-83
2022/11/18 07:06:20;;;;;;;;;1.75;0.50;;;;;;;;5080614;27;62209;-84
2022/11/18 07:08:46;;;;;;;;;1.00;1.00;;;;;;;;5080694;27;61883;-84
2022/11/18 07:11:12;;;;;;;;;0.50;0.00;;;;;;;;5081866;28;61865;-83
2022/11/18 07:13:38;;;;;;;;;1.00;1.00;;;;;;;;5080381;27;61893;-85
2022/11/18 07:16:04;;;;;;;;;2.00;2.00;;;;;;;;5080281;27;61950;-85
2022/11/18 07:18:33;;;;;;;;;2.00;0.25;;;;;;;;5080983;28;62171;-84
2022/11/18 07:21:05;;;;;;;;;1.00;1.00;;;;;;;;5084773;28;61728;-83
2022/11/18 07:23:31;;;;;;;;;1.25;1.25;;;;;;;;5083433;27;61813;-84
2022/11/18 07:25:56;;;;;;;;;9.00;0.50;;;;;;;;5085195;28;61771;-85
2022/11/18 07:28:22;;;;;;;;;2.00;0.75;;;;;;;;5082883;27;62715;-85
2022/11/18 07:30:47;;;;;;;;;0.00;0.00;;;;;;;;5084583;28;61710;-85
2022/11/18 07:33:12;;;;;;;;;2.00;1.50;;;;;;;;5085335;28;61875;-85
2022/11/18 07:35:37;;;;;;;;;6.50;2.00;;;;;;;;5083193;27;61779;-84
2022/11/18 07:38:03;;;;;;;;;1.00;1.00;;;;;;;;5081667;28;61985;-83
2022/11/18 07:40:28;;;;;;;;;4.25;0.75;;;;;;;;5100924;27;61744;-82
2022/11/18 07:42:53;;;;;;;;;2.25;1.00;;;;;;;;5105057;27;61717;-80
2022/11/18 07:45:18;;;;;;;;;1.00;1.00;;;;;;;;5105448;27;61931;-79
2022/11/18 07:47:44;;;;;;;;;1.00;1.00;;;;;;;;5120363;27;63163;-80
2022/11/18 07:50:09;;;;;;;;;2.00;1.00;;;;;;;;5088476;27;61792;-82
2022/11/18 07:52:34;;;;;;;;;1.00;1.00;;;;;;;;5083919;28;62138;-83
2022/11/18 07:55:00;;;;;;;;;2.00;1.00;;;;;;;;5082826;27;61816;-83
2022/11/18 07:57:25;;;;;;;;;1.75;0.25;;;;;;;;5081651;27;62990;-82
2022/11/18 07:59:50;;;;;;;;;0.50;0.50;;;;;;;;5082499;27;61927;-84
2022/11/18 08:02:16;;;;;;;;;2.75;1.00;;;;;;;;5083944;27;62696;-84
2022/11/18 08:04:41;;;;;;;;;1.00;0.75;;;;;;;;5084380;27;61986;-84
2022/11/18 08:07:08;;;;;;;;;3.00;2.00;;;;;;;;5082533;28;62658;-83
2022/11/18 08:09:33;;;;;;;;;4.00;1.75;;;;;;;;5074242;27;62167;-81
2022/11/18 08:11:59;;;;;;;;;3.25;1.00;;;;;;;;5083836;28;61920;-82
2022/11/18 08:14:25;;;;;;;;;3.25;2.50;;;;;;;;5083622;27;61890;-82
2022/11/18 08:16:50;;;;;;;;;1.75;1.00;;;;;;;;5081495;28;63349;-82
2022/11/18 08:19:16;;;;;;;;;2.25;1.25;;;;;;;;5083025;27;61780;-82
2022/11/18 08:21:42;;;;;;;;;4.00;1.00;;;;;;;;5083337;28;61748;-83
2022/11/18 08:24:08;;;;;;;;;0.50;0.50;;;;;;;;5082565;28;62195;-81
2022/11/18 08:26:34;;;;;;;;;2.25;2.00;;;;;;;;5082659;28;61820;-81
2022/11/18 08:28:59;;;;;;;;;4.00;1.00;;;;;;;;5083675;27;61734;-81
2022/11/18 08:31:26;;;;;;;;;2.00;2.00;;;;;;;;5081315;28;61704;-82
2022/11/18 08:33:55;;;;;;;;;7.75;3.00;;;;;;;;5082912;27;61765;-82
2022/11/18 08:36:21;;;;;;;;;4.00;1.00;;;;;;;;5081992;28;63176;-81
2022/11/18 08:38:47;;;;;;;;;1.75;1.75;;;;;;;;5080734;27;61782;-83
2022/11/18 08:41:17;;;;;;;;;1.25;1.25;;;;;;;;5061627;28;61888;-81
2022/11/18 08:43:42;;;;;;;;;6.00;1.75;;;;;;;;5062552;28;61813;-82
2022/11/18 08:46:07;;;;;;;;;2.50;2.00;;;;;;;;5061610;28;61843;-84
2022/11/18 08:48:32;;;;;;;;;2.25;1.00;;;;;;;;5061237;28;62112;-82
2022/11/18 08:50:58;;;;;;;;;1.00;1.00;;;;;;;;5067571;28;62175;-81
2022/11/18 08:53:24;;;;;;;;;0.00;0.00;;;;;;;;5074027;28;61883;-82
2022/11/18 08:55:56;;;;;;;;;3.50;2.50;;;;;;;;5080880;28;61831;-82
2022/11/18 08:58:21;;;;;;;;;5.25;2.75;;;;;;;;5082089;28;61774;-83
2022/11/18 09:00:47;;;;;;;;;3.00;3.00;;;;;;;;5082048;28;61747;-82
2022/11/18 09:03:12;;;;;;;;;4.25;4.25;;;;;;;;5082083;28;62149;-82
2022/11/18 09:05:37;;;;;;;;;2.75;2.00;;;;;;;;5078296;28;64259;-82
2022/11/18 09:08:03;;;;;;;;;3.75;3.75;;;;;;;;5082134;28;61829;-79
2022/11/18 09:10:28;;;;;;;;;3.00;1.75;;;;;;;;5081693;27;61686;-79
2022/11/18 09:12:58;;;;;;;;;2.00;2.00;;;;;;;;5082799;28;61775;-80
2022/11/18 09:15:25;;;;;;;;;3.00;2.00;;;;;;;;5078915;28;63826;-80
2022/11/18 09:17:50;;;;;;;;;0.75;0.75;;;;;;;;5082102;28;62361;-80
2022/11/18 09:20:16;;;;;;;;;2.00;1.00;;;;;;;;5079826;27;62347;-80
2022/11/18 09:22:41;;;;;;;;;2.50;0.75;;;;;;;;5082176;28;61966;-80
2022/11/18 09:25:07;;;;;;;;;2.50;1.25;;;;;;;;5079980;28;62835;-80
2022/11/18 09:27:32;;;;;;;;;3.75;2.00;;;;;;;;5082593;27;61849;-81
2022/11/18 09:29:57;;;;;;;;;1.00;1.00;;;;;;;;5083082;28;62025;-82
2022/11/18 09:32:23;;;;;;;;;0.50;0.25;;;;;;;;5083380;28;62121;-81
2022/11/18 09:34:48;;;;;;;;;1.00;1.00;;;;;;;;5080735;28;62989;-81
2022/11/18 09:37:13;;;;;;;;;1.00;1.00;;;;;;;;5083123;28;61725;-80
2022/11/18 09:39:39;;;;;;;;;1.75;0.00;;;;;;;;5082224;27;62039;-80
2022/11/18 09:42:11;;;;;;;;;0.00;0.00;;;;;;;;5083082;28;61855;-81
2022/11/18 09:44:39;;;;;;;;;1.00;0.25;;;;;;;;5081525;28;62259;-81
2022/11/18 09:47:23;;;;;;;;;1.00;1.00;;;;;;;;5083062;28;61961;-81
2022/11/18 09:49:49;;;;;;;;;0.00;0.00;;;;;;;;5082201;28;61783;-81
2022/11/18 09:52:17;;;;;;;;;1.00;1.00;;;;;;;;5082789;27;61940;-82
2022/11/18 09:54:43;;;;;;;;;0.50;0.50;;;;;;;;5079964;28;62911;-81
2022/11/18 09:57:14;;;;;;;;;2.00;0.25;;;;;;;;5082718;27;61654;-81
2022/11/18 09:59:39;;;;;;;;;1.00;1.00;;;;;;;;5069572;28;61833;-82
2022/11/18 10:02:24;;;;;;;;;1.00;1.00;;;;;;;;5082466;27;61907;-81
2022/11/18 10:04:50;;;;;;;;;3.00;0.00;;;;;;;;5080587;28;63618;-81
2022/11/18 10:07:19;;;;;;;;;0.00;0.00;;;;;;;;5082124;28;62064;-80
2022/11/18 10:09:46;;;;;;;;;0.00;0.00;;;;;;;;5081526;27;61848;-81
2022/11/18 10:12:20;;;;;;;;;3.00;0.00;;;;;;;;5079488;28;61806;-81
2022/11/18 10:14:52;;;;;;;;;0.25;0.25;;;;;;;;5081671;28;62254;-81
2022/11/18 10:17:26;;;;;;;;;1.00;0.00;;;;;;;;5081789;28;61906;-81
2022/11/18 10:19:55;;;;;;;;;3.00;1.00;;;;;;;;5081762;28;61732;-81
2022/11/18 10:22:23;;;;;;;;;1.50;0.25;;;;;;;;5073520;27;61918;-82
2022/11/18 10:24:51;;;;;;;;;2.00;0.00;;;;;;;;5077423;28;62112;-81
2022/11/18 10:27:17;;;;;;;;;0.00;0.00;;;;;;;;5081635;28;62329;-80
2022/11/18 10:29:43;;;;;;;;;1.00;0.00;;;;;;;;5081193;28;62178;-78
2022/11/18 10:32:12;;;;;;;;;4.50;1.00;;;;;;;;5082387;28;61682;-80
2022/11/18 10:34:48;;;;;;;;;0.50;0.00;;;;;;;;5079684;28;63880;-82
2022/11/18 10:37:23;;;;;;;;;0.00;0.00;;;;;;;;5081033;28;61952;-81
2022/11/18 10:39:50;;;;;;;;;0.00;0.00;;;;;;;;5093100;27;62020;-82
2022/11/18 10:42:21;;;;;;;;;0.00;0.00;;;;;;;;5101038;27;61850;-82
2022/11/18 10:44:47;;;;;;;;;0.00;0.00;;;;;;;;5100718;27;61949;-81
2022/11/18 10:47:15;;;;;;;;;0.00;0.00;;;;;;;;5080707;28;61898;-80
2022/11/18 10:49:40;;;;;;;;;0.00;0.00;;;;;;;;5081684;28;61947;-80
2022/11/18 10:52:10;;;;;;;;;0.50;0.50;;;;;;;;5081960;27;62142;-82
2022/11/18 10:54:35;;;;;;;;;1.00;0.00;;;;;;;;5080934;28;62104;-80
2022/11/18 10:57:04;;;;;;;;;0.00;0.00;;;;;;;;5083707;28;62008;-80
2022/11/18 10:59:32;;;;;;;;;1.75;0.75;;;;;;;;5085467;28;61893;-81
2022/11/18 11:01:58;;;;;;;;;1.50;0.00;;;;;;;;5085038;27;61987;-81
2022/11/18 11:04:24;;;;;;;;;1.00;0.00;;;;;;;;5074276;28;63225;-81
2022/11/18 11:06:49;;;;;;;;;0.50;0.50;;;;;;;;5081435;27;61904;-81
2022/11/18 11:09:14;;;;;;;;;0.00;0.00;;;;;;;;5082648;28;61751;-81
2022/11/18 11:11:42;;;;;;;;;0.00;0.00;;;;;;;;5082181;28;62126;-81
2022/11/18 11:14:10;;;;;;;;;0.00;0.00;;;;;;;;5074899;28;62184;-77
2022/11/18 11:16:41;;;;;;;;;0.00;0.00;;;;;;;;5081012;27;61796;-80
2022/11/18 11:19:09;;;;;;;;;0.00;0.00;;;;;;;;5082774;28;62184;-79
2022/11/18 11:21:37;;;;;;;;;0.75;0.00;;;;;;;;5084153;28;62045;-81
2022/11/18 11:24:08;;;;;;;;;0.50;0.50;;;;;;;;5081848;27;63131;-84
2022/11/18 11:26:42;;;;;;;;;0.00;0.00;;;;;;;;5083341;28;61956;-84
2022/11/18 11:29:16;;;;;;;;;1.25;0.50;;;;;;;;5084118;27;61750;-82
2022/11/18 11:32:13;;;;;;;;;0.25;0.25;;;;;;;;5085240;27;61861;-82
2022/11/18 11:34:57;;;;;;;;;0.75;0.00;;;;;;;;5083181;28;61976;-84
2022/11/18 11:37:34;;;;;;;;;0.25;0.00;;;;;;;;5084553;28;61742;-85
2022/11/18 11:39:59;;;;;;;;;0.25;0.00;;;;;;;;5088186;27;62495;-81
2022/11/18 11:42:25;;;;;;;;;0.25;0.00;;;;;;;;5083591;28;62196;-85
2022/11/18 11:45:02;;;;;;;;;1.25;0.25;;;;;;;;5082443;28;63496;-83
2022/11/18 11:47:46;;;;;;;;;1.00;1.00;;;;;;;;5082632;28;61966;-80
2022/11/18 11:50:16;;;;;;;;;1.00;1.00;;;;;;;;5083283;28;61956;-81
2022/11/18 11:53:00;;;;;;;;;2.00;0.25;;;;;;;;5083817;28;61916;-78
2022/11/18 11:55:36;;;;;;;;;1.50;1.50;;;;;;;;5081428;28;63554;-77
2022/11/18 11:58:31;;;;;;;;;0.00;0.00;;;;;;;;5083879;28;61988;-80
2022/11/18 12:01:04;;;;;;;;;0.00;0.00;;;;;;;;5041627;28;61778;-80
2022/11/18 12:03:41;;;;;;;;;1.00;0.00;;;;;;;;5041056;28;61844;-79
2022/11/18 12:06:08;;;;;;;;;0.50;0.00;;;;;;;;5019641;28;61900;-80
2022/11/18 12:08:34;;;;;;;;;0.00;0.00;;;;;;;;5003965;28;62044;-79
2022/11/18 12:11:12;;;;;;;;;2.50;0.75;;;;;;;;5004396;28;62181;-81
2022/11/18 12:14:10;;;;;;;;;1.00;0.00;;;;;;;;5010188;28;62169;-84
2022/11/18 12:16:44;;;;;;;;;0.75;0.75;;;;;;;;5000625;28;61907;-83
2022/11/18 12:19:18;;;;;;;;;0.00;0.00;;;;;;;;5000613;28;62240;-84
2022/11/18 12:21:44;;;;;;;;;0.00;0.00;;;;;;;;5001124;28;62340;-81
2022/11/18 12:24:19;;;;;;;;;0.50;0.00;;;;;;;;5000835;28;62103;-83
2022/11/18 12:26:46;;;;;;;;;1.00;0.00;;;;;;;;4997050;28;62328;-81
2022/11/18 12:29:17;;;;;;;;;3.25;2.00;;;;;;;;4983504;28;62046;-83
2022/11/18 12:31:42;;;;;;;;;1.50;0.00;;;;;;;;4996692;28;62506;-81
2022/11/18 12:34:19;;;;;;;;;0.50;0.50;;;;;;;;5000548;28;61904;-82
2022/11/18 12:36:44;;;;;;;;;2.00;0.00;;;;;;;;5007959;28;63281;-82
2022/11/18 12:39:24;;;;;;;;;0.00;0.00;;;;;;;;5023338;28;61926;-81
2022/11/18 12:44:51;;;;;;;;;2.00;0.50;;;;;;;;5040215;28;61884;-81
2022/11/18 12:47:36;;;;;;;;;2.50;0.00;;;;;;;;5041935;28;63717;-82
2022/11/18 12:50:14;;;;;;;;;0.00;0.00;;;;;;;;5031801;28;61994;-81
2022/11/18 12:52:46;;;;;;;;;4.00;2.00;;;;;;;;5059057;28;62240;-80
2022/11/18 12:55:15;;;;;;;;;1.00;0.00;;;;;;;;5080535;28;62027;-81
2022/11/18 12:57:40;;;;;;;;;1.00;0.00;;;;;;;;5077462;28;62592;-81
2022/11/18 13:00:27;;;;;;;;;0.25;0.00;;;;;;;;5081540;28;62022;-81
2022/11/18 13:02:54;;;;;;;;;2.00;0.00;;;;;;;;5083311;28;61693;-81
2022/11/18 13:05:23;;;;;;;;;1.00;0.00;;;;;;;;5080403;27;61691;-80
2022/11/18 13:10:37;;;;;;;;;4.00;0.75;;;;;;;;5082031;27;61979;-79
2022/11/18 13:13:12;;;;;;;;;1.00;0.00;;;;;;;;5080452;27;61942;-80
2022/11/18 13:18:28;;;;;;;;;2.00;1.00;;;;;;;;5081334;28;61926;-79
2022/11/18 13:20:55;;;;;;;;;0.25;0.25;;;;;;;;5081534;27;61987;-81
2022/11/18 13:26:12;;;;;;;;;1.00;1.00;;;;;;;;5082544;28;61891;-81
2022/11/18 13:28:40;;;;;;;;;1.75;0.75;;;;;;;;5082434;27;62061;-80
2022/11/18 13:31:06;;;;;;;;;0.00;0.00;;;;;;;;5082745;28;61771;-79
2022/11/18 13:33:35;;;;;;;;;1.50;0.00;;;;;;;;5081285;28;62233;-78
2022/11/18 13:36:21;;;;;;;;;0.25;0.00;;;;;;;;5083083;27;61822;-78
2022/11/18 13:39:06;;;;;;;;;1.00;0.00;;;;;;;;5084706;27;61962;-80
2022/11/18 13:41:33;;;;;;;;;1.50;0.00;;;;;;;;5101145;27;61815;-80
2022/11/18 13:44:16;;;;;;;;;0.50;0.25;;;;;;;;5088779;27;62047;-79
2022/11/18 13:46:42;;;;;;;;;0.00;0.00;;;;;;;;5078950;27;62198;-79
2022/11/18 13:49:12;;;;;;;;;0.00;0.00;;;;;;;;5078678;27;64553;-78
2022/11/18 13:51:37;;;;;;;;;3.25;1.00;;;;;;;;5081059;28;61685;-79
2022/11/18 13:54:03;;;;;;;;;0.00;0.00;;;;;;;;5085833;27;61897;-79
2022/11/18 13:56:32;;;;;;;;;1.00;0.00;;;;;;;;5078348;28;61797;-79
2022/11/18 13:58:59;;;;;;;;;0.00;0.00;;;;;;;;5080307;28;61949;-82
2022/11/18 14:01:32;;;;;;;;;0.00;0.00;;;;;;;;5080227;28;61970;-84
2022/11/18 14:04:02;;;;;;;;;0.00;0.00;;;;;;;;5080829;28;62491;-79
2022/11/18 14:06:35;;;;;;;;;0.00;0.00;;;;;;;;5076266;28;61900;-80
2022/11/18 14:09:06;;;;;;;;;1.00;1.00;;;;;;;;5079087;28;61862;-82
2022/11/18 14:11:36;;;;;;;;;0.25;0.25;;;;;;;;5077926;27;62065;-80
2022/11/18 14:14:01;;;;;;;;;0.00;0.00;;;;;;;;5079945;27;61717;-78
2022/11/18 14:16:34;;;;;;;;;2.00;0.00;;;;;;;;5076365;28;61969;-78
2022/11/18 14:19:00;;;;;;;;;1.00;0.00;;;;;;;;5076790;28;63005;-79
2022/11/18 14:21:26;;;;;;;;;0.00;0.00;;;;;;;;5080431;28;61833;-78
2022/11/18 14:23:52;;;;;;;;;0.25;0.25;;;;;;;;5078845;28;61984;-78
2022/11/18 14:26:28;;;;;;;;;3.00;1.25;;;;;;;;5077327;27;62224;-80
2022/11/18 14:28:55;;;;;;;;;0.00;0.00;;;;;;;;5079192;28;61934;-79
2022/11/18 14:31:23;;;;;;;;;0.00;0.00;;;;;;;;5081483;28;61800;-81
2022/11/18 14:34:07;;;;;;;;;1.25;0.00;;;;;;;;5097147;27;62088;-81
2022/11/18 14:36:32;;;;;;;;;2.00;1.00;;;;;;;;5079537;28;61790;-81
2022/11/18 14:38:57;;;;;;;;;0.50;0.50;;;;;;;;5082229;27;65009;-80
2022/11/18 14:44:07;;;;;;;;;2.00;0.00;;;;;;;;5081812;28;62347;-80
2022/11/18 14:46:33;;;;;;;;;3.25;0.50;;;;;;;;5081267;28;61859;-81
2022/11/18 14:49:01;;;;;;;;;1.00;0.00;;;;;;;;5079211;27;63518;-82
2022/11/18 14:51:26;;;;;;;;;1.00;0.00;;;;;;;;5081274;28;61990;-79
2022/11/18 14:53:51;;;;;;;;;0.00;0.00;;;;;;;;5079110;28;61875;-81
2022/11/18 14:56:19;;;;;;;;;0.00;0.00;;;;;;;;5081065;28;62117;-79
2022/11/18 14:58:46;;;;;;;;;0.00;0.00;;;;;;;;5080220;28;62998;-79
2022/11/18 15:01:12;;;;;;;;;0.00;0.00;;;;;;;;5081283;28;61914;-79
2022/11/18 15:03:37;;;;;;;;;3.00;0.00;;;;;;;;5080777;28;62598;-79
2022/11/18 15:06:03;;;;;;;;;4.50;0.00;;;;;;;;5080113;27;62027;-78
2022/11/18 15:08:28;;;;;;;;;0.00;0.00;;;;;;;;5079714;28;61859;-79
2022/11/18 15:10:53;;;;;;;;;1.50;0.00;;;;;;;;5081252;28;61830;-80
2022/11/18 15:13:18;;;;;;;;;1.50;0.00;;;;;;;;5081657;28;62081;-79
2022/11/18 15:15:44;;;;;;;;;1.00;0.00;;;;;;;;5080123;28;62411;-79
2022/11/18 15:18:09;;;;;;;;;0.00;0.00;;;;;;;;5079184;27;61880;-79